sensor_id;sensor_type;location;lat;lon;timestamp;pressure;altitude;pressure_sealevel;temperature;humidity
71573;BME280;59408;51.032;9.410;2023-10-09T00:00:49;99507.66;;;9.11;100.00
71573;BME280;59408;51.032;9.410;2023-10-09T00:03:17;99496.31;;;9.09;100.00
71573;BME280;59408;51.032;9.410;2023-10-09T00:05:43;99489.16;;;9.30;100.00
71573;BME280;59408;51.032;9.410;2023-10-09T00:08:10;99487.59;;;9.64;100.00
71573;BME280;59408;51.032;9.410;2023-10-09T00:10:38;99478.91;;;9.79;100.00
71573;BME280;59408;51.032;9.410;2023-10-09T00:13:05;99479.50;;;9.93;100.00
71573;BME280;59408;51.032;9.410;2023-10-09T00:15:32;99488.69;;;9.63;100.00
71573;BME280;59408;51.032;9.410;2023-10-09T00:18:02;99483.25;;;9.37;100.00
71573;BME280;59408;51.032;9.410;2023-10-09T00:20:29;99488.84;;;9.32;100.00
71573;BME280;59408;51.032;9.410;2023-10-09T00:22:55;99484.81;;;9.21;100.00
71573;BME280;59408;51.032;9.410;2023-10-09T00:25:22;99484.38;;;9.19;100.00
71573;BME280;59408;51.032;9.410;2023-10-09T00:27:50;99494.47;;;9.35;100.00
71573;BME280;59408;51.032;9.410;2023-10-09T00:30:17;99496.69;;;9.42;100.00
71573;BME280;59408;51.032;9.410;2023-10-09T00:32:45;99490.94;;;9.26;100.00
71573;BME280;59408;51.032;9.410;2023-10-09T00:35:12;99487.03;;;9.10;100.00
71573;BME280;59408;51.032;9.410;2023-10-09T00:37:38;99484.13;;;8.98;100.00
71573;BME280;59408;51.032;9.410;2023-10-09T00:40:06;99482.19;;;8.90;100.00
71573;BME280;59408;51.032;9.410;2023-10-09T00:42:33;99488.72;;;8.80;100.00
71573;BME280;59408;51.032;9.410;2023-10-09T00:45:01;99484.56;;;8.74;100.00
71573;BME280;59408;51.032;9.410;2023-10-09T00:47:31;99481.78;;;8.65;100.00
71573;BME280;59408;51.032;9.410;2023-10-09T00:49:59;99478.31;;;8.73;100.00
71573;BME280;59408;51.032;9.410;2023-10-09T00:52:28;99472.78;;;9.13;100.00
71573;BME280;59408;51.032;9.410;2023-10-09T00:54:55;99469.56;;;9.11;100.00
71573;BME280;59408;51.032;9.410;2023-10-09T00:57:22;99475.78;;;8.86;100.00
71573;BME280;59408;51.032;9.410;2023-10-09T00:59:51;99481.66;;;8.70;100.00
71573;BME280;59408;51.032;9.410;2023-10-09T01:02:21;99477.63;;;8.59;100.00
71573;BME280;59408;51.032;9.410;2023-10-09T01:04:48;99470.91;;;8.65;100.00
71573;BME280;59408;51.032;9.410;2023-10-09T01:07:15;99474.97;;;8.85;100.00
71573;BME280;59408;51.032;9.410;2023-10-09T01:09:42;99469.53;;;8.85;100.00
71573;BME280;59408;51.032;9.410;2023-10-09T01:12:09;99464.88;;;8.77;100.00
71573;BME280;59408;51.032;9.410;2023-10-09T01:14:36;99468.38;;;8.69;100.00
71573;BME280;59408;51.032;9.410;2023-10-09T01:17:03;99455.72;;;8.64;100.00
71573;BME280;59408;51.032;9.410;2023-10-09T01:19:31;99444.84;;;8.64;100.00
71573;BME280;59408;51.032;9.410;2023-10-09T01:21:58;99433.72;;;8.83;100.00
71573;BME280;59408;51.032;9.410;2023-10-09T01:24:26;99436.44;;;8.83;100.00
71573;BME280;59408;51.032;9.410;2023-10-09T01:26:53;99434.97;;;8.86;100.00
71573;BME280;59408;51.032;9.410;2023-10-09T01:29:20;99428.59;;;9.16;100.00
71573;BME280;59408;51.032;9.410;2023-10-09T01:31:48;99425.41;;;9.48;100.00
71573;BME280;59408;51.032;9.410;2023-10-09T01:34:15;99424.13;;;9.63;100.00
71573;BME280;59408;51.032;9.410;2023-10-09T01:36:42;99408.91;;;9.62;100.00
71573;BME280;59408;51.032;9.410;2023-10-09T01:39:09;99399.44;;;9.68;100.00
71573;BME280;59408;51.032;9.410;2023-10-09T01:41:37;99402.97;;;9.69;100.00
71573;BME280;59408;51.032;9.410;2023-10-09T01:44:04;99406.22;;;9.45;100.00
71573;BME280;59408;51.032;9.410;2023-10-09T01:46:30;99400.63;;;9.24;100.00
71573;BME280;59408;51.032;9.410;2023-10-09T01:48:57;99408.44;;;9.17;100.00
71573;BME280;59408;51.032;9.410;2023-10-09T01:51:24;99401.22;;;9.04;100.00
71573;BME280;59408;51.032;9.410;2023-10-09T01:53:50;99399.28;;;8.96;100.00
71573;BME280;59408;51.032;9.410;2023-10-09T01:56:17;99409.69;;;8.94;100.00
71573;BME280;59408;51.032;9.410;2023-10-09T01:58:45;99416.00;;;9.29;100.00
71573;BME280;59408;51.032;9.410;2023-10-09T02:01:12;99411.44;;;9.76;100.00
71573;BME280;59408;51.032;9.410;2023-10-09T02:03:39;99404.66;;;9.99;100.00
71573;BME280;59408;51.032;9.410;2023-10-09T02:06:06;99397.03;;;9.67;100.00
71573;BME280;59408;51.032;9.410;2023-10-09T02:08:33;99399.28;;;9.56;100.00
71573;BME280;59408;51.032;9.410;2023-10-09T02:10:59;99397.88;;;9.33;100.00
71573;BME280;59408;51.032;9.410;2023-10-09T02:13:25;99390.03;;;9.14;100.00
71573;BME280;59408;51.032;9.410;2023-10-09T02:15:55;99385.69;;;9.04;100.00
71573;BME280;59408;51.032;9.410;2023-10-09T02:18:22;99387.28;;;8.97;100.00
71573;BME280;59408;51.032;9.410;2023-10-09T02:20:51;99386.97;;;9.07;100.00
71573;BME280;59408;51.032;9.410;2023-10-09T02:23:17;99382.19;;;9.04;100.00
71573;BME280;59408;51.032;9.410;2023-10-09T02:25:45;99383.63;;;9.01;100.00
71573;BME280;59408;51.032;9.410;2023-10-09T02:28:11;99384.41;;;9.02;100.00
71573;BME280;59408;51.032;9.410;2023-10-09T02:30:38;99388.59;;;9.17;100.00
71573;BME280;59408;51.032;9.410;2023-10-09T02:33:06;99384.59;;;9.23;100.00
71573;BME280;59408;51.032;9.410;2023-10-09T02:35:33;99385.25;;;9.45;100.00
71573;BME280;59408;51.032;9.410;2023-10-09T02:38:00;99373.69;;;9.40;100.00
71573;BME280;59408;51.032;9.410;2023-10-09T02:40:27;99369.22;;;9.35;100.00
71573;BME280;59408;51.032;9.410;2023-10-09T02:42:54;99369.19;;;9.53;100.00
71573;BME280;59408;51.032;9.410;2023-10-09T02:45:20;99359.88;;;9.71;100.00
71573;BME280;59408;51.032;9.410;2023-10-09T02:47:47;99362.09;;;9.77;100.00
71573;BME280;59408;51.032;9.410;2023-10-09T02:50:16;99374.00;;;9.64;100.00
71573;BME280;59408;51.032;9.410;2023-10-09T02:52:42;99368.38;;;9.61;100.00
71573;BME280;59408;51.032;9.410;2023-10-09T02:55:09;99373.81;;;9.69;100.00
71573;BME280;59408;51.032;9.410;2023-10-09T02:57:35;99373.56;;;10.00;100.00
71573;BME280;59408;51.032;9.410;2023-10-09T03:00:03;99376.34;;;10.21;100.00
71573;BME280;59408;51.032;9.410;2023-10-09T03:02:30;99377.50;;;10.11;100.00
71573;BME280;59408;51.032;9.410;2023-10-09T03:04:57;99381.03;;;10.12;100.00
71573;BME280;59408;51.032;9.410;2023-10-09T03:07:25;99383.91;;;10.15;100.00
71573;BME280;59408;51.032;9.410;2023-10-09T03:09:52;99378.66;;;10.40;100.00
71573;BME280;59408;51.032;9.410;2023-10-09T03:12:18;99375.06;;;10.48;100.00
71573;BME280;59408;51.032;9.410;2023-10-09T03:14:45;99386.38;;;10.38;100.00
71573;BME280;59408;51.032;9.410;2023-10-09T03:17:12;99371.06;;;10.16;100.00
71573;BME280;59408;51.032;9.410;2023-10-09T03:19:39;99364.25;;;9.93;100.00
71573;BME280;59408;51.032;9.410;2023-10-09T03:22:07;99365.28;;;9.79;100.00
71573;BME280;59408;51.032;9.410;2023-10-09T03:24:35;99362.28;;;9.72;100.00
71573;BME280;59408;51.032;9.410;2023-10-09T03:27:02;99364.84;;;9.69;100.00
71573;BME280;59408;51.032;9.410;2023-10-09T03:29:29;99361.50;;;9.63;100.00
71573;BME280;59408;51.032;9.410;2023-10-09T03:31:55;99367.09;;;9.58;100.00
71573;BME280;59408;51.032;9.410;2023-10-09T03:34:22;99357.50;;;9.52;100.00
71573;BME280;59408;51.032;9.410;2023-10-09T03:36:49;99360.56;;;9.50;100.00
71573;BME280;59408;51.032;9.410;2023-10-09T03:39:15;99350.13;;;9.53;100.00
71573;BME280;59408;51.032;9.410;2023-10-09T03:41:44;99357.44;;;9.78;100.00
71573;BME280;59408;51.032;9.410;2023-10-09T03:44:10;99345.69;;;9.86;100.00
71573;BME280;59408;51.032;9.410;2023-10-09T03:46:37;99344.78;;;9.82;100.00
71573;BME280;59408;51.032;9.410;2023-10-09T03:49:04;99346.44;;;10.04;100.00
71573;BME280;59408;51.032;9.410;2023-10-09T03:51:30;99339.81;;;10.13;100.00
71573;BME280;59408;51.032;9.410;2023-10-09T03:53:57;99331.78;;;10.17;100.00
71573;BME280;59408;51.032;9.410;2023-10-09T03:56:24;99337.31;;;10.29;100.00
71573;BME280;59408;51.032;9.410;2023-10-09T03:58:52;99335.34;;;10.38;100.00
71573;BME280;59408;51.032;9.410;2023-10-09T04:01:19;99334.97;;;10.48;100.00
71573;BME280;59408;51.032;9.410;2023-10-09T04:03:46;99326.53;;;10.62;100.00
71573;BME280;59408;51.032;9.410;2023-10-09T04:06:12;99328.41;;;10.70;100.00
71573;BME280;59408;51.032;9.410;2023-10-09T04:08:39;99317.31;;;10.75;100.00
71573;BME280;59408;51.032;9.410;2023-10-09T04:11:06;99318.25;;;10.79;100.00
71573;BME280;59408;51.032;9.410;2023-10-09T04:13:35;99320.59;;;10.89;100.00
71573;BME280;59408;51.032;9.410;2023-10-09T04:16:03;99309.59;;;10.98;100.00
71573;BME280;59408;51.032;9.410;2023-10-09T04:18:30;99302.44;;;11.06;100.00
71573;BME280;59408;51.032;9.410;2023-10-09T04:20:57;99294.84;;;11.11;100.00
71573;BME280;59408;51.032;9.410;2023-10-09T04:23:23;99296.59;;;11.16;100.00
71573;BME280;59408;51.032;9.410;2023-10-09T04:25:50;99290.56;;;11.22;100.00
71573;BME280;59408;51.032;9.410;2023-10-09T04:28:16;99300.81;;;11.25;100.00
71573;BME280;59408;51.032;9.410;2023-10-09T04:30:43;99301.88;;;11.33;100.00
71573;BME280;59408;51.032;9.410;2023-10-09T04:33:12;99284.25;;;11.43;100.00
71573;BME280;59408;51.032;9.410;2023-10-09T04:35:39;99290.38;;;11.40;100.00
71573;BME280;59408;51.032;9.410;2023-10-09T04:38:05;99288.59;;;11.44;100.00
71573;BME280;59408;51.032;9.410;2023-10-09T04:40:32;99281.66;;;11.46;100.00
71573;BME280;59408;51.032;9.410;2023-10-09T04:42:59;99300.53;;;11.51;100.00
71573;BME280;59408;51.032;9.410;2023-10-09T04:45:26;99297.25;;;11.58;100.00
71573;BME280;59408;51.032;9.410;2023-10-09T04:47:52;99296.25;;;11.62;100.00
71573;BME280;59408;51.032;9.410;2023-10-09T04:50:20;99289.31;;;11.65;100.00
71573;BME280;59408;51.032;9.410;2023-10-09T04:52:47;99294.41;;;11.66;100.00
71573;BME280;59408;51.032;9.410;2023-10-09T04:55:13;99288.28;;;11.69;100.00
71573;BME280;59408;51.032;9.410;2023-10-09T04:57:41;99287.16;;;11.70;100.00
71573;BME280;59408;51.032;9.410;2023-10-09T05:00:09;99289.53;;;11.72;100.00
71573;BME280;59408;51.032;9.410;2023-10-09T05:02:36;99287.81;;;11.67;100.00
71573;BME280;59408;51.032;9.410;2023-10-09T05:05:03;99277.34;;;11.69;100.00
71573;BME280;59408;51.032;9.410;2023-10-09T05:07:32;99279.88;;;11.74;100.00
71573;BME280;59408;51.032;9.410;2023-10-09T05:09:58;99297.63;;;11.81;100.00
71573;BME280;59408;51.032;9.410;2023-10-09T05:12:25;99295.72;;;11.81;100.00
71573;BME280;59408;51.032;9.410;2023-10-09T05:14:51;99291.84;;;11.82;100.00
71573;BME280;59408;51.032;9.410;2023-10-09T05:17:18;99294.91;;;11.81;100.00
71573;BME280;59408;51.032;9.410;2023-10-09T05:19:45;99287.16;;;11.83;100.00
71573;BME280;59408;51.032;9.410;2023-10-09T05:22:11;99287.97;;;11.83;100.00
71573;BME280;59408;51.032;9.410;2023-10-09T05:24:39;99289.09;;;11.82;100.00
71573;BME280;59408;51.032;9.410;2023-10-09T05:27:06;99291.84;;;11.82;100.00
71573;BME280;59408;51.032;9.410;2023-10-09T05:29:32;99284.44;;;11.83;100.00
71573;BME280;59408;51.032;9.410;2023-10-09T05:32:00;99297.31;;;11.82;100.00
71573;BME280;59408;51.032;9.410;2023-10-09T05:34:27;99294.56;;;11.82;100.00
71573;BME280;59408;51.032;9.410;2023-10-09T05:36:53;99291.13;;;11.85;100.00
71573;BME280;59408;51.032;9.410;2023-10-09T05:39:20;99292.41;;;11.88;100.00
71573;BME280;59408;51.032;9.410;2023-10-09T05:41:48;99291.25;;;11.89;100.00
71573;BME280;59408;51.032;9.410;2023-10-09T05:44:14;99291.38;;;11.92;100.00
71573;BME280;59408;51.032;9.410;2023-10-09T05:46:41;99289.47;;;11.93;100.00
71573;BME280;59408;51.032;9.410;2023-10-09T05:49:07;99297.41;;;11.98;100.00
71573;BME280;59408;51.032;9.410;2023-10-09T05:51:34;99290.09;;;12.02;100.00
71573;BME280;59408;51.032;9.410;2023-10-09T05:54:01;99291.84;;;12.06;100.00
71573;BME280;59408;51.032;9.410;2023-10-09T05:56:27;99302.44;;;12.08;100.00
71573;BME280;59408;51.032;9.410;2023-10-09T05:58:55;99313.47;;;12.11;100.00
71573;BME280;59408;51.032;9.410;2023-10-09T06:01:21;99306.44;;;12.10;100.00
71573;BME280;59408;51.032;9.410;2023-10-09T06:03:48;99306.56;;;12.14;100.00
71573;BME280;59408;51.032;9.410;2023-10-09T06:06:15;99308.94;;;12.16;100.00
71573;BME280;59408;51.032;9.410;2023-10-09T06:08:42;99308.94;;;12.16;100.00
71573;BME280;59408;51.032;9.410;2023-10-09T06:11:09;99311.00;;;12.19;100.00
71573;BME280;59408;51.032;9.410;2023-10-09T06:13:36;99296.63;;;12.22;100.00
71573;BME280;59408;51.032;9.410;2023-10-09T06:16:04;99312.25;;;12.21;100.00
71573;BME280;59408;51.032;9.410;2023-10-09T06:18:30;99312.69;;;12.23;100.00
71573;BME280;59408;51.032;9.410;2023-10-09T06:20:57;99299.81;;;12.24;100.00
71573;BME280;59408;51.032;9.410;2023-10-09T06:23:23;99293.56;;;12.23;100.00
71573;BME280;59408;51.032;9.410;2023-10-09T06:25:50;99309.63;;;12.25;100.00
71573;BME280;59408;51.032;9.410;2023-10-09T06:28:17;99300.75;;;12.28;100.00
71573;BME280;59408;51.032;9.410;2023-10-09T06:30:44;99307.09;;;12.32;100.00
71573;BME280;59408;51.032;9.410;2023-10-09T06:33:12;99305.50;;;12.31;100.00
71573;BME280;59408;51.032;9.410;2023-10-09T06:35:38;99309.50;;;12.33;100.00
71573;BME280;59408;51.032;9.410;2023-10-09T06:38:11;99316.25;;;12.36;100.00
71573;BME280;59408;51.032;9.410;2023-10-09T06:40:38;99320.66;;;12.40;100.00
71573;BME280;59408;51.032;9.410;2023-10-09T06:43:04;99335.25;;;12.44;100.00
71573;BME280;59408;51.032;9.410;2023-10-09T06:45:34;99336.16;;;12.48;100.00
71573;BME280;59408;51.032;9.410;2023-10-09T06:48:01;99348.81;;;12.53;100.00
71573;BME280;59408;51.032;9.410;2023-10-09T06:50:29;99350.41;;;12.54;100.00
71573;BME280;59408;51.032;9.410;2023-10-09T06:52:56;99357.91;;;12.57;100.00
71573;BME280;59408;51.032;9.410;2023-10-09T06:55:23;99348.56;;;12.58;100.00
71573;BME280;59408;51.032;9.410;2023-10-09T06:57:49;99359.19;;;12.60;100.00
71573;BME280;59408;51.032;9.410;2023-10-09T07:00:16;99363.50;;;12.61;100.00
71573;BME280;59408;51.032;9.410;2023-10-09T07:02:43;99369.78;;;12.61;100.00
71573;BME280;59408;51.032;9.410;2023-10-09T07:05:09;99364.31;;;12.61;100.00
71573;BME280;59408;51.032;9.410;2023-10-09T07:07:41;99356.44;;;12.60;100.00
71573;BME280;59408;51.032;9.410;2023-10-09T07:10:08;99362.84;;;12.64;100.00
71573;BME280;59408;51.032;9.410;2023-10-09T07:12:34;99367.16;;;12.65;100.00
71573;BME280;59408;51.032;9.410;2023-10-09T07:15:02;99373.06;;;12.67;100.00
71573;BME280;59408;51.032;9.410;2023-10-09T07:17:28;99369.78;;;12.73;100.00
71573;BME280;59408;51.032;9.410;2023-10-09T07:19:55;99369.06;;;12.76;100.00
71573;BME280;59408;51.032;9.410;2023-10-09T07:22:22;99364.50;;;12.80;100.00
71573;BME280;59408;51.032;9.410;2023-10-09T07:24:52;99371.69;;;12.85;100.00
71573;BME280;59408;51.032;9.410;2023-10-09T07:27:19;99369.41;;;12.87;100.00
71573;BME280;59408;51.032;9.410;2023-10-09T07:29:46;99358.44;;;12.87;100.00
71573;BME280;59408;51.032;9.410;2023-10-09T07:32:12;99378.41;;;12.88;100.00
71573;BME280;59408;51.032;9.410;2023-10-09T07:34:39;99380.13;;;12.92;100.00
71573;BME280;59408;51.032;9.410;2023-10-09T07:37:05;99383.19;;;12.91;100.00
71573;BME280;59408;51.032;9.410;2023-10-09T07:39:32;99391.50;;;12.94;100.00
71573;BME280;59408;51.032;9.410;2023-10-09T07:42:01;99379.06;;;12.97;100.00
71573;BME280;59408;51.032;9.410;2023-10-09T07:44:27;99373.47;;;13.05;100.00
71573;BME280;59408;51.032;9.410;2023-10-09T07:46:54;99389.66;;;13.10;100.00
71573;BME280;59408;51.032;9.410;2023-10-09T07:49:20;99400.69;;;13.14;100.00
71573;BME280;59408;51.032;9.410;2023-10-09T07:51:47;99396.22;;;13.21;100.00
71573;BME280;59408;51.032;9.410;2023-10-09T07:54:13;99400.22;;;13.24;100.00
71573;BME280;59408;51.032;9.410;2023-10-09T07:56:41;99403.50;;;13.30;100.00
71573;BME280;59408;51.032;9.410;2023-10-09T07:59:10;99406.34;;;13.33;100.00
71573;BME280;59408;51.032;9.410;2023-10-09T08:01:37;99392.66;;;13.33;100.00
71573;BME280;59408;51.032;9.410;2023-10-09T08:04:05;99396.66;;;13.36;100.00
71573;BME280;59408;51.032;9.410;2023-10-09T08:06:31;99398.69;;;13.39;100.00
71573;BME280;59408;51.032;9.410;2023-10-09T08:08:59;99406.25;;;13.42;100.00
71573;BME280;59408;51.032;9.410;2023-10-09T08:11:25;99404.50;;;13.49;100.00
71573;BME280;59408;51.032;9.410;2023-10-09T08:13:52;99401.06;;;13.52;100.00
71573;BME280;59408;51.032;9.410;2023-10-09T08:16:20;99389.75;;;13.54;100.00
71573;BME280;59408;51.032;9.410;2023-10-09T08:18:46;99378.06;;;13.57;100.00
71573;BME280;59408;51.032;9.410;2023-10-09T08:21:13;99382.88;;;13.60;100.00
71573;BME280;59408;51.032;9.410;2023-10-09T08:23:39;99379.31;;;13.59;100.00
71573;BME280;59408;51.032;9.410;2023-10-09T08:26:06;99373.50;;;13.61;100.00
71573;BME280;59408;51.032;9.410;2023-10-09T08:28:32;99375.09;;;13.62;100.00
71573;BME280;59408;51.032;9.410;2023-10-09T08:30:59;99370.88;;;13.65;100.00
71573;BME280;59408;51.032;9.410;2023-10-09T08:33:27;99376.06;;;13.70;100.00
71573;BME280;59408;51.032;9.410;2023-10-09T08:35:57;99368.75;;;13.74;100.00
71573;BME280;59408;51.032;9.410;2023-10-09T08:38:24;99369.28;;;13.79;100.00
71573;BME280;59408;51.032;9.410;2023-10-09T08:40:51;99366.66;;;13.83;100.00
71573;BME280;59408;51.032;9.410;2023-10-09T08:43:19;99365.22;;;13.89;100.00
71573;BME280;59408;51.032;9.410;2023-10-09T08:45:47;99372.31;;;13.90;100.00
71573;BME280;59408;51.032;9.410;2023-10-09T08:48:14;99362.22;;;13.94;100.00
71573;BME280;59408;51.032;9.410;2023-10-09T08:50:44;99381.63;;;14.01;100.00
71573;BME280;59408;51.032;9.410;2023-10-09T08:53:12;99382.13;;;14.07;100.00
71573;BME280;59408;51.032;9.410;2023-10-09T08:55:40;99379.03;;;14.08;100.00
71573;BME280;59408;51.032;9.410;2023-10-09T08:58:07;99368.75;;;14.21;100.00
71573;BME280;59408;51.032;9.410;2023-10-09T09:00:34;99381.06;;;14.27;100.00
71573;BME280;59408;51.032;9.410;2023-10-09T09:03:01;99373.81;;;14.34;100.00
71573;BME280;59408;51.032;9.410;2023-10-09T09:05:28;99362.19;;;14.41;100.00
71573;BME280;59408;51.032;9.410;2023-10-09T09:07:56;99360.69;;;14.44;100.00
71573;BME280;59408;51.032;9.410;2023-10-09T09:10:27;99365.47;;;14.47;100.00
71573;BME280;59408;51.032;9.410;2023-10-09T09:12:54;99363.53;;;14.47;99.94
71573;BME280;59408;51.032;9.410;2023-10-09T09:15:21;99372.63;;;14.51;100.00
71573;BME280;59408;51.032;9.410;2023-10-09T09:17:48;99370.06;;;14.58;99.38
71573;BME280;59408;51.032;9.410;2023-10-09T09:20:19;99369.09;;;14.66;100.00
71573;BME280;59408;51.032;9.410;2023-10-09T09:22:52;99371.81;;;14.66;99.50
71573;BME280;59408;51.032;9.410;2023-10-09T09:25:20;99380.06;;;14.66;99.58
71573;BME280;59408;51.032;9.410;2023-10-09T09:27:47;99382.00;;;14.66;99.32
71573;BME280;59408;51.032;9.410;2023-10-09T09:30:22;99379.38;;;14.69;100.00
71573;BME280;59408;51.032;9.410;2023-10-09T09:32:49;99380.97;;;14.70;99.91
71573;BME280;59408;51.032;9.410;2023-10-09T09:35:16;99382.91;;;14.70;99.54
71573;BME280;59408;51.032;9.410;2023-10-09T09:37:52;99378.38;;;14.78;99.40
71573;BME280;59408;51.032;9.410;2023-10-09T09:40:20;99376.72;;;14.73;98.94
71573;BME280;59408;51.032;9.410;2023-10-09T09:42:48;99382.00;;;14.82;98.71
71573;BME280;59408;51.032;9.410;2023-10-09T09:45:15;99382.00;;;14.82;99.02
71573;BME280;59408;51.032;9.410;2023-10-09T09:47:43;99377.16;;;14.94;100.00
71573;BME280;59408;51.032;9.410;2023-10-09T09:50:11;99380.00;;;14.98;98.06
71573;BME280;59408;51.032;9.410;2023-10-09T09:52:38;99371.91;;;15.05;99.47
71573;BME280;59408;51.032;9.410;2023-10-09T09:55:08;99384.63;;;15.13;99.07
71573;BME280;59408;51.032;9.410;2023-10-09T09:57:36;99386.91;;;15.27;99.03
71573;BME280;59408;51.032;9.410;2023-10-09T10:00:04;99398.97;;;15.22;96.83
71573;BME280;59408;51.032;9.410;2023-10-09T10:02:35;99401.66;;;15.19;97.13
71573;BME280;59408;51.032;9.410;2023-10-09T10:05:06;99424.34;;;15.16;97.67
71573;BME280;59408;51.032;9.410;2023-10-09T10:07:35;99412.91;;;15.14;98.20
71573;BME280;59408;51.032;9.410;2023-10-09T10:10:01;99417.09;;;15.07;98.97
71573;BME280;59408;51.032;9.410;2023-10-09T10:18:32;99379.50;;;15.12;99.67
71573;BME280;59408;51.032;9.410;2023-10-09T10:21:10;99356.34;;;15.13;99.46
71573;BME280;59408;51.032;9.410;2023-10-09T10:23:37;99346.47;;;15.08;100.00
71573;BME280;59408;51.032;9.410;2023-10-09T10:26:16;99351.25;;;15.11;99.56
71573;BME280;59408;51.032;9.410;2023-10-09T10:28:42;99322.88;;;15.07;99.45
71573;BME280;59408;51.032;9.410;2023-10-09T10:31:10;99285.22;;;15.07;99.35
71573;BME280;59408;51.032;9.410;2023-10-09T10:34:06;99278.22;;;15.10;99.71
71573;BME280;59408;51.032;9.410;2023-10-09T10:36:32;99294.75;;;15.14;99.24
71573;BME280;59408;51.032;9.410;2023-10-09T10:38:59;99306.91;;;15.13;97.76
71573;BME280;59408;51.032;9.410;2023-10-09T10:41:26;99307.06;;;15.20;97.95
71573;BME280;59408;51.032;9.410;2023-10-09T10:43:53;99305.16;;;15.24;97.71
71573;BME280;59408;51.032;9.410;2023-10-09T10:46:21;99300.59;;;15.31;97.72
71573;BME280;59408;51.032;9.410;2023-10-09T10:48:48;99302.97;;;15.33;96.68
71573;BME280;59408;51.032;9.410;2023-10-09T10:51:16;99316.22;;;15.46;98.25
71573;BME280;59408;51.032;9.410;2023-10-09T10:53:50;99303.31;;;15.51;97.57
71573;BME280;59408;51.032;9.410;2023-10-09T10:56:18;99302.50;;;15.69;96.66
71573;BME280;59408;51.032;9.410;2023-10-09T10:58:52;99302.06;;;15.90;96.28
71573;BME280;59408;51.032;9.410;2023-10-09T11:01:19;99301.81;;;15.99;94.07
71573;BME280;59408;51.032;9.410;2023-10-09T11:03:49;99297.59;;;16.05;93.73
71573;BME280;59408;51.032;9.410;2023-10-09T11:06:24;99294.66;;;16.17;92.89
71573;BME280;59408;51.032;9.410;2023-10-09T11:08:51;99288.88;;;16.26;91.58
71573;BME280;59408;51.032;9.410;2023-10-09T11:11:17;99288.72;;;16.41;90.44
71573;BME280;59408;51.032;9.410;2023-10-09T11:13:44;99290.63;;;16.37;93.36
71573;BME280;59408;51.032;9.410;2023-10-09T11:16:11;99292.63;;;16.40;90.78
71573;BME280;59408;51.032;9.410;2023-10-09T11:18:39;99283.63;;;16.43;89.49
71573;BME280;59408;51.032;9.410;2023-10-09T11:21:06;99290.47;;;16.53;90.76
71573;BME280;59408;51.032;9.410;2023-10-09T11:23:34;99293.84;;;16.69;89.00
71573;BME280;59408;51.032;9.410;2023-10-09T11:26:03;99289.88;;;16.67;87.20
71573;BME280;59408;51.032;9.410;2023-10-09T11:28:30;99298.78;;;16.86;88.36
71573;BME280;59408;51.032;9.410;2023-10-09T11:31:08;99280.16;;;17.06;86.16
71573;BME280;59408;51.032;9.410;2023-10-09T11:33:44;99272.44;;;17.19;85.21
71573;BME280;59408;51.032;9.410;2023-10-09T11:36:11;99274.34;;;17.15;84.61
71573;BME280;59408;51.032;9.410;2023-10-09T11:38:39;99273.91;;;17.13;83.67
71573;BME280;59408;51.032;9.410;2023-10-09T11:41:12;99288.13;;;17.15;83.66
71573;BME280;59408;51.032;9.410;2023-10-09T11:43:46;99281.38;;;17.09;85.40
71573;BME280;59408;51.032;9.410;2023-10-09T11:46:13;99277.88;;;17.15;84.67
71573;BME280;59408;51.032;9.410;2023-10-09T11:48:39;99298.63;;;17.02;85.21
71573;BME280;59408;51.032;9.410;2023-10-09T11:51:12;99292.19;;;16.91;86.54
71573;BME280;59408;51.032;9.410;2023-10-09T11:53:41;99292.31;;;17.02;85.07
71573;BME280;59408;51.032;9.410;2023-10-09T11:56:08;99300.97;;;17.04;87.00
71573;BME280;59408;51.032;9.410;2023-10-09T11:58:34;99297.06;;;17.05;86.25
71573;BME280;59408;51.032;9.410;2023-10-09T12:01:11;99304.94;;;17.03;86.64
71573;BME280;59408;51.032;9.410;2023-10-09T12:03:37;99315.16;;;17.02;87.16
71573;BME280;59408;51.032;9.410;2023-10-09T12:06:04;99316.13;;;16.87;86.99
71573;BME280;59408;51.032;9.410;2023-10-09T12:08:31;99314.13;;;16.84;88.05
71573;BME280;59408;51.032;9.410;2023-10-09T12:10:59;99306.75;;;16.91;88.42
71573;BME280;59408;51.032;9.410;2023-10-09T12:13:26;99311.13;;;16.96;88.83
71573;BME280;59408;51.032;9.410;2023-10-09T12:15:53;99311.84;;;16.89;88.73
71573;BME280;59408;51.032;9.410;2023-10-09T12:18:20;99304.13;;;16.72;89.56
71573;BME280;59408;51.032;9.410;2023-10-09T12:20:47;99321.50;;;16.76;89.50
71573;BME280;59408;51.032;9.410;2023-10-09T12:23:17;99314.81;;;16.77;89.86
71573;BME280;59408;51.032;9.410;2023-10-09T12:25:44;99307.72;;;16.76;89.66
71573;BME280;59408;51.032;9.410;2023-10-09T12:28:13;99303.44;;;16.79;88.94
71573;BME280;59408;51.032;9.410;2023-10-09T12:30:40;99303.34;;;16.72;90.21
71573;BME280;59408;51.032;9.410;2023-10-09T12:33:08;99304.06;;;16.69;89.44
71573;BME280;59408;51.032;9.410;2023-10-09T12:35:38;99294.44;;;16.85;90.17
71573;BME280;59408;51.032;9.410;2023-10-09T12:38:06;99305.97;;;16.94;89.14
71573;BME280;59408;51.032;9.410;2023-10-09T12:40:32;99295.44;;;17.00;88.44
71573;BME280;59408;51.032;9.410;2023-10-09T12:42:59;99302.19;;;17.03;88.49
71573;BME280;59408;51.032;9.410;2023-10-09T12:45:27;99295.53;;;17.07;87.87
71573;BME280;59408;51.032;9.410;2023-10-09T12:47:53;99293.47;;;17.01;88.47
71573;BME280;59408;51.032;9.410;2023-10-09T12:50:20;99300.53;;;16.98;88.32
71573;BME280;59408;51.032;9.410;2023-10-09T12:52:47;99293.78;;;16.92;88.67
71573;BME280;59408;51.032;9.410;2023-10-09T12:55:14;99299.66;;;16.90;88.99
71573;BME280;59408;51.032;9.410;2023-10-09T12:57:40;99310.25;;;16.88;89.57
71573;BME280;59408;51.032;9.410;2023-10-09T13:00:07;99299.38;;;16.99;89.45
71573;BME280;59408;51.032;9.410;2023-10-09T13:02:35;99296.09;;;16.90;90.13